sensor_id;sensor_type;location;lat;lon;timestamp;P1;durP1;ratioP1;P2;durP2;ratioP2
25922;SDS011;13725;51.170;4.442;2022-11-15T00:02:06;45.72;;;22.63;;
25922;SDS011;13725;51.170;4.442;2022-11-15T00:04:50;46.17;;;22.33;;
25922;SDS011;13725;51.170;4.442;2022-11-15T00:07:34;39.13;;;20.75;;
25922;SDS011;13725;51.170;4.442;2022-11-15T00:10:18;45.17;;;22.00;;
25922;SDS011;13725;51.170;4.442;2022-11-15T00:13:06;49.13;;;22.20;;
25922;SDS011;13725;51.170;4.442;2022-11-15T00:15:52;45.13;;;20.90;;
25922;SDS011;13725;51.170;4.442;2022-11-15T00:18:40;46.03;;;21.50;;
25922;SDS011;13725;51.170;4.442;2022-11-15T00:21:24;43.60;;;21.63;;
25922;SDS011;13725;51.170;4.442;2022-11-15T00:24:08;40.65;;;20.02;;
25922;SDS011;13725;51.170;4.442;2022-11-15T00:26:52;39.55;;;20.55;;
25922;SDS011;13725;51.170;4.442;2022-11-15T00:29:36;38.67;;;20.15;;
25922;SDS011;13725;51.170;4.442;2022-11-15T00:32:22;35.85;;;18.60;;
25922;SDS011;13725;51.170;4.442;2022-11-15T00:35:06;40.90;;;19.15;;
25922;SDS011;13725;51.170;4.442;2022-11-15T00:37:51;34.00;;;18.58;;
25922;SDS011;13725;51.170;4.442;2022-11-15T00:40:36;35.97;;;18.38;;
25922;SDS011;13725;51.170;4.442;2022-11-15T00:43:20;36.22;;;18.48;;
25922;SDS011;13725;51.170;4.442;2022-11-15T00:46:04;34.10;;;17.73;;
25922;SDS011;13725;51.170;4.442;2022-11-15T00:48:49;33.85;;;17.60;;
25922;SDS011;13725;51.170;4.442;2022-11-15T00:51:33;33.67;;;17.95;;
25922;SDS011;13725;51.170;4.442;2022-11-15T00:54:17;35.67;;;17.52;;
25922;SDS011;13725;51.170;4.442;2022-11-15T00:57:01;36.45;;;17.65;;
25922;SDS011;13725;51.170;4.442;2022-11-15T00:59:45;31.70;;;17.42;;
25922;SDS011;13725;51.170;4.442;2022-11-15T01:02:29;29.95;;;16.27;;
25922;SDS011;13725;51.170;4.442;2022-11-15T01:05:13;32.13;;;16.58;;
25922;SDS011;13725;51.170;4.442;2022-11-15T01:07:57;41.17;;;16.88;;
25922;SDS011;13725;51.170;4.442;2022-11-15T01:10:41;28.27;;;16.33;;
25922;SDS011;13725;51.170;4.442;2022-11-15T01:13:26;33.95;;;16.88;;
25922;SDS011;13725;51.170;4.442;2022-11-15T01:16:15;28.92;;;15.52;;
25922;SDS011;13725;51.170;4.442;2022-11-15T01:19:01;30.40;;;15.25;;
25922;SDS011;13725;51.170;4.442;2022-11-15T01:21:48;27.80;;;14.63;;
25922;SDS011;13725;51.170;4.442;2022-11-15T01:24:33;28.00;;;14.90;;
25922;SDS011;13725;51.170;4.442;2022-11-15T01:27:17;28.23;;;15.30;;
25922;SDS011;13725;51.170;4.442;2022-11-15T01:30:02;25.33;;;14.43;;
25922;SDS011;13725;51.170;4.442;2022-11-15T01:32:47;28.50;;;14.48;;
25922;SDS011;13725;51.170;4.442;2022-11-15T01:35:31;30.17;;;14.45;;
25922;SDS011;13725;51.170;4.442;2022-11-15T01:38:15;27.38;;;15.07;;
25922;SDS011;13725;51.170;4.442;2022-11-15T01:40:59;25.30;;;13.65;;
25922;SDS011;13725;51.170;4.442;2022-11-15T01:43:45;28.50;;;14.50;;
25922;SDS011;13725;51.170;4.442;2022-11-15T01:46:31;27.73;;;13.80;;
25922;SDS011;13725;51.170;4.442;2022-11-15T01:49:21;29.05;;;13.90;;
25922;SDS011;13725;51.170;4.442;2022-11-15T01:52:09;31.58;;;14.68;;
25922;SDS011;13725;51.170;4.442;2022-11-15T01:54:59;31.80;;;15.13;;
25922;SDS011;13725;51.170;4.442;2022-11-15T01:57:47;24.27;;;13.70;;
25922;SDS011;13725;51.170;4.442;2022-11-15T02:00:36;26.48;;;14.43;;
25922;SDS011;13725;51.170;4.442;2022-11-15T02:03:21;26.73;;;12.13;;
25922;SDS011;13725;51.170;4.442;2022-11-15T02:06:10;27.98;;;13.57;;
25922;SDS011;13725;51.170;4.442;2022-11-15T02:08:55;25.63;;;13.02;;
25922;SDS011;13725;51.170;4.442;2022-11-15T02:11:41;25.05;;;12.82;;
25922;SDS011;13725;51.170;4.442;2022-11-15T02:14:26;22.83;;;12.75;;
25922;SDS011;13725;51.170;4.442;2022-11-15T02:17:22;25.05;;;12.82;;
25922;SDS011;13725;51.170;4.442;2022-11-15T02:26:32;26.42;;;13.20;;
25922;SDS011;13725;51.170;4.442;2022-11-15T02:29:52;27.40;;;13.25;;
25922;SDS011;13725;51.170;4.442;2022-11-15T02:33:17;25.92;;;12.95;;
25922;SDS011;13725;51.170;4.442;2022-11-15T02:36:15;27.52;;;13.63;;
25922;SDS011;13725;51.170;4.442;2022-11-15T02:39:15;24.83;;;13.50;;
25922;SDS011;13725;51.170;4.442;2022-11-15T02:42:13;30.45;;;12.35;;
25922;SDS011;13725;51.170;4.442;2022-11-15T02:45:24;20.88;;;12.02;;
25922;SDS011;13725;51.170;4.442;2022-11-15T02:48:13;25.27;;;13.05;;
25922;SDS011;13725;51.170;4.442;2022-11-15T02:50:59;28.20;;;13.00;;
25922;SDS011;13725;51.170;4.442;2022-11-15T02:53:45;29.85;;;13.20;;
25922;SDS011;13725;51.170;4.442;2022-11-15T02:56:29;29.45;;;13.40;;
25922;SDS011;13725;51.170;4.442;2022-11-15T02:59:16;19.00;;;11.57;;
25922;SDS011;13725;51.170;4.442;2022-11-15T03:02:13;21.15;;;12.15;;
25922;SDS011;13725;51.170;4.442;2022-11-15T03:05:11;23.77;;;11.65;;
25922;SDS011;13725;51.170;4.442;2022-11-15T03:13:57;25.33;;;11.18;;
25922;SDS011;13725;51.170;4.442;2022-11-15T03:19:49;23.92;;;12.38;;
25922;SDS011;13725;51.170;4.442;2022-11-15T03:22:36;24.73;;;12.20;;
25922;SDS011;13725;51.170;4.442;2022-11-15T03:25:24;23.00;;;11.70;;
25922;SDS011;13725;51.170;4.442;2022-11-15T03:28:12;25.00;;;11.95;;
25922;SDS011;13725;51.170;4.442;2022-11-15T03:31:04;23.13;;;11.68;;
25922;SDS011;13725;51.170;4.442;2022-11-15T03:34:10;21.35;;;11.45;;
25922;SDS011;13725;51.170;4.442;2022-11-15T03:37:01;23.63;;;12.68;;
25922;SDS011;13725;51.170;4.442;2022-11-15T03:39:45;21.38;;;11.27;;
25922;SDS011;13725;51.170;4.442;2022-11-15T03:42:31;21.42;;;11.00;;
25922;SDS011;13725;51.170;4.442;2022-11-15T03:45:39;20.40;;;10.30;;
25922;SDS011;13725;51.170;4.442;2022-11-15T03:48:35;20.42;;;10.13;;
25922;SDS011;13725;51.170;4.442;2022-11-15T03:51:25;19.17;;;10.13;;
25922;SDS011;13725;51.170;4.442;2022-11-15T03:54:11;21.73;;;10.70;;
25922;SDS011;13725;51.170;4.442;2022-11-15T03:56:56;24.52;;;10.18;;
25922;SDS011;13725;51.170;4.442;2022-11-15T03:59:40;20.05;;;8.48;;
25922;SDS011;13725;51.170;4.442;2022-11-15T04:02:24;17.52;;;8.35;;
25922;SDS011;13725;51.170;4.442;2022-11-15T04:05:08;21.88;;;9.57;;
25922;SDS011;13725;51.170;4.442;2022-11-15T04:07:52;16.58;;;7.63;;
25922;SDS011;13725;51.170;4.442;2022-11-15T04:10:36;13.90;;;7.18;;
25922;SDS011;13725;51.170;4.442;2022-11-15T04:13:21;14.95;;;7.65;;
25922;SDS011;13725;51.170;4.442;2022-11-15T04:16:05;22.38;;;9.63;;
25922;SDS011;13725;51.170;4.442;2022-11-15T04:18:49;13.88;;;7.32;;
25922;SDS011;13725;51.170;4.442;2022-11-15T04:21:53;16.33;;;7.63;;
25922;SDS011;13725;51.170;4.442;2022-11-15T04:24:56;11.85;;;6.82;;
25922;SDS011;13725;51.170;4.442;2022-11-15T04:27:40;20.00;;;7.35;;
25922;SDS011;13725;51.170;4.442;2022-11-15T04:30:24;12.43;;;6.93;;
25922;SDS011;13725;51.170;4.442;2022-11-15T04:33:08;15.63;;;7.32;;
25922;SDS011;13725;51.170;4.442;2022-11-15T04:35:53;15.68;;;7.13;;
25922;SDS011;13725;51.170;4.442;2022-11-15T04:38:55;18.80;;;7.68;;
25922;SDS011;13725;51.170;4.442;2022-11-15T04:41:40;14.73;;;8.60;;
25922;SDS011;13725;51.170;4.442;2022-11-15T04:44:24;16.20;;;7.90;;
25922;SDS011;13725;51.170;4.442;2022-11-15T04:47:08;18.00;;;7.20;;
25922;SDS011;13725;51.170;4.442;2022-11-15T04:49:52;19.75;;;7.45;;
25922;SDS011;13725;51.170;4.442;2022-11-15T04:52:36;15.35;;;6.80;;
25922;SDS011;13725;51.170;4.442;2022-11-15T04:55:20;14.82;;;6.88;;
25922;SDS011;13725;51.170;4.442;2022-11-15T04:58:05;16.35;;;6.95;;
25922;SDS011;13725;51.170;4.442;2022-11-15T05:00:49;12.90;;;6.70;;
25922;SDS011;13725;51.170;4.442;2022-11-15T05:03:33;22.42;;;8.30;;
25922;SDS011;13725;51.170;4.442;2022-11-15T05:06:36;14.90;;;6.77;;
25922;SDS011;13725;51.170;4.442;2022-11-15T05:09:20;10.80;;;7.07;;
25922;SDS011;13725;51.170;4.442;2022-11-15T05:12:05;19.67;;;6.78;;
25922;SDS011;13725;51.170;4.442;2022-11-15T05:14:49;14.77;;;7.45;;
25922;SDS011;13725;51.170;4.442;2022-11-15T05:17:33;16.75;;;7.13;;
25922;SDS011;13725;51.170;4.442;2022-11-15T05:20:17;13.80;;;6.95;;
25922;SDS011;13725;51.170;4.442;2022-11-15T05:23:01;14.63;;;6.80;;
25922;SDS011;13725;51.170;4.442;2022-11-15T05:25:46;16.63;;;6.25;;
25922;SDS011;13725;51.170;4.442;2022-11-15T05:28:31;14.13;;;6.90;;
25922;SDS011;13725;51.170;4.442;2022-11-15T05:31:16;14.90;;;6.93;;
25922;SDS011;13725;51.170;4.442;2022-11-15T05:34:00;14.45;;;6.10;;
25922;SDS011;13725;51.170;4.442;2022-11-15T05:36:47;13.90;;;5.80;;
25922;SDS011;13725;51.170;4.442;2022-11-15T05:39:32;11.13;;;5.63;;
25922;SDS011;13725;51.170;4.442;2022-11-15T05:42:16;11.13;;;5.60;;
25922;SDS011;13725;51.170;4.442;2022-11-15T05:45:01;11.20;;;6.05;;
25922;SDS011;13725;51.170;4.442;2022-11-15T05:47:48;13.90;;;6.10;;
25922;SDS011;13725;51.170;4.442;2022-11-15T05:50:34;12.00;;;5.50;;
25922;SDS011;13725;51.170;4.442;2022-11-15T05:53:21;12.90;;;5.55;;
25922;SDS011;13725;51.170;4.442;2022-11-15T05:56:08;11.27;;;5.75;;
25922;SDS011;13725;51.170;4.442;2022-11-15T05:58:53;14.48;;;5.80;;
25922;SDS011;13725;51.170;4.442;2022-11-15T06:01:40;15.63;;;6.57;;
25922;SDS011;13725;51.170;4.442;2022-11-15T06:04:25;12.13;;;6.40;;
25922;SDS011;13725;51.170;4.442;2022-11-15T06:07:09;12.18;;;6.28;;
25922;SDS011;13725;51.170;4.442;2022-11-15T06:09:53;14.73;;;5.78;;
25922;SDS011;13725;51.170;4.442;2022-11-15T06:12:37;13.70;;;5.40;;
25922;SDS011;13725;51.170;4.442;2022-11-15T06:15:21;13.68;;;5.65;;
25922;SDS011;13725;51.170;4.442;2022-11-15T06:18:05;10.93;;;4.85;;
25922;SDS011;13725;51.170;4.442;2022-11-15T06:20:50;8.95;;;4.35;;
25922;SDS011;13725;51.170;4.442;2022-11-15T06:23:35;13.73;;;4.38;;
25922;SDS011;13725;51.170;4.442;2022-11-15T06:26:19;12.70;;;4.43;;
25922;SDS011;13725;51.170;4.442;2022-11-15T06:29:04;10.57;;;4.55;;
25922;SDS011;13725;51.170;4.442;2022-11-15T06:31:48;11.02;;;4.25;;
25922;SDS011;13725;51.170;4.442;2022-11-15T06:34:32;9.93;;;4.75;;
25922;SDS011;13725;51.170;4.442;2022-11-15T06:37:17;13.57;;;4.88;;
25922;SDS011;13725;51.170;4.442;2022-11-15T06:40:01;12.57;;;4.63;;
25922;SDS011;13725;51.170;4.442;2022-11-15T06:42:46;11.90;;;4.45;;
25922;SDS011;13725;51.170;4.442;2022-11-15T06:45:30;12.05;;;4.47;;
25922;SDS011;13725;51.170;4.442;2022-11-15T06:48:15;13.02;;;5.18;;
25922;SDS011;13725;51.170;4.442;2022-11-15T06:51:00;13.63;;;6.28;;
25922;SDS011;13725;51.170;4.442;2022-11-15T06:53:46;13.10;;;6.45;;
25922;SDS011;13725;51.170;4.442;2022-11-15T06:56:30;18.35;;;8.27;;
25922;SDS011;13725;51.170;4.442;2022-11-15T06:59:14;23.95;;;7.65;;
25922;SDS011;13725;51.170;4.442;2022-11-15T07:01:59;15.50;;;7.18;;
25922;SDS011;13725;51.170;4.442;2022-11-15T07:04:43;20.80;;;8.63;;
25922;SDS011;13725;51.170;4.442;2022-11-15T07:07:27;20.92;;;6.78;;
25922;SDS011;13725;51.170;4.442;2022-11-15T07:10:11;15.98;;;6.65;;
25922;SDS011;13725;51.170;4.442;2022-11-15T07:12:55;15.63;;;5.95;;
25922;SDS011;13725;51.170;4.442;2022-11-15T07:15:40;14.50;;;5.93;;
25922;SDS011;13725;51.170;4.442;2022-11-15T07:18:24;14.32;;;5.68;;
25922;SDS011;13725;51.170;4.442;2022-11-15T07:21:09;15.20;;;5.47;;
25922;SDS011;13725;51.170;4.442;2022-11-15T07:23:54;13.32;;;5.95;;
25922;SDS011;13725;51.170;4.442;2022-11-15T07:26:38;16.35;;;6.35;;
25922;SDS011;13725;51.170;4.442;2022-11-15T07:29:22;10.98;;;5.60;;
25922;SDS011;13725;51.170;4.442;2022-11-15T07:32:06;19.40;;;6.45;;
25922;SDS011;13725;51.170;4.442;2022-11-15T07:34:51;13.77;;;5.75;;
25922;SDS011;13725;51.170;4.442;2022-11-15T07:37:35;14.57;;;5.88;;
25922;SDS011;13725;51.170;4.442;2022-11-15T07:40:19;12.90;;;6.07;;
25922;SDS011;13725;51.170;4.442;2022-11-15T07:43:04;10.90;;;6.00;;
25922;SDS011;13725;51.170;4.442;2022-11-15T07:45:49;12.32;;;5.95;;
25922;SDS011;13725;51.170;4.442;2022-11-15T07:48:32;17.42;;;6.00;;
25922;SDS011;13725;51.170;4.442;2022-11-15T07:51:17;13.15;;;6.07;;
25922;SDS011;13725;51.170;4.442;2022-11-15T07:54:01;19.50;;;6.10;;
25922;SDS011;13725;51.170;4.442;2022-11-15T07:56:46;16.50;;;5.57;;
25922;SDS011;13725;51.170;4.442;2022-11-15T07:59:30;23.13;;;6.65;;
25922;SDS011;13725;51.170;4.442;2022-11-15T08:02:14;12.57;;;5.53;;
25922;SDS011;13725;51.170;4.442;2022-11-15T08:05:01;11.77;;;5.00;;
25922;SDS011;13725;51.170;4.442;2022-11-15T08:07:45;13.43;;;5.10;;
25922;SDS011;13725;51.170;4.442;2022-11-15T08:10:30;9.98;;;4.55;;
25922;SDS011;13725;51.170;4.442;2022-11-15T08:13:14;9.90;;;4.45;;
25922;SDS011;13725;51.170;4.442;2022-11-15T08:16:02;9.20;;;3.97;;
25922;SDS011;13725;51.170;4.442;2022-11-15T08:18:48;12.27;;;3.65;;
25922;SDS011;13725;51.170;4.442;2022-11-15T08:21:32;9.25;;;3.58;;
25922;SDS011;13725;51.170;4.442;2022-11-15T08:24:16;9.93;;;3.55;;
25922;SDS011;13725;51.170;4.442;2022-11-15T08:27:00;6.70;;;3.25;;
25922;SDS011;13725;51.170;4.442;2022-11-15T08:29:44;6.28;;;3.75;;
25922;SDS011;13725;51.170;4.442;2022-11-15T08:32:29;10.05;;;3.03;;
25922;SDS011;13725;51.170;4.442;2022-11-15T08:35:14;12.50;;;3.30;;
25922;SDS011;13725;51.170;4.442;2022-11-15T08:37:59;5.30;;;2.40;;
25922;SDS011;13725;51.170;4.442;2022-11-15T08:40:43;7.70;;;2.80;;
25922;SDS011;13725;51.170;4.442;2022-11-15T08:43:27;7.03;;;2.65;;
25922;SDS011;13725;51.170;4.442;2022-11-15T08:46:12;10.25;;;2.83;;
25922;SDS011;13725;51.170;4.442;2022-11-15T08:48:57;3.45;;;2.40;;
25922;SDS011;13725;51.170;4.442;2022-11-15T08:51:41;7.57;;;2.60;;
25922;SDS011;13725;51.170;4.442;2022-11-15T08:54:26;5.43;;;2.55;;
25922;SDS011;13725;51.170;4.442;2022-11-15T08:57:10;6.85;;;2.63;;
25922;SDS011;13725;51.170;4.442;2022-11-15T08:59:54;6.90;;;2.03;;
25922;SDS011;13725;51.170;4.442;2022-11-15T09:02:39;6.93;;;2.17;;
25922;SDS011;13725;51.170;4.442;2022-11-15T09:05:24;11.18;;;2.55;;
25922;SDS011;13725;51.170;4.442;2022-11-15T09:08:08;6.13;;;1.83;;
25922;SDS011;13725;51.170;4.442;2022-11-15T09:10:53;9.27;;;1.85;;
25922;SDS011;13725;51.170;4.442;2022-11-15T09:13:37;4.15;;;2.05;;
25922;SDS011;13725;51.170;4.442;2022-11-15T09:16:21;8.57;;;2.13;;
25922;SDS011;13725;51.170;4.442;2022-11-15T09:19:06;3.88;;;1.67;;
25922;SDS011;13725;51.170;4.442;2022-11-15T09:21:50;7.35;;;2.00;;
25922;SDS011;13725;51.170;4.442;2022-11-15T09:24:35;4.72;;;1.88;;
25922;SDS011;13725;51.170;4.442;2022-11-15T09:27:19;8.55;;;2.20;;
25922;SDS011;13725;51.170;4.442;2022-11-15T09:30:03;7.15;;;1.95;;
25922;SDS011;13725;51.170;4.442;2022-11-15T09:32:48;7.10;;;1.75;;
25922;SDS011;13725;51.170;4.442;2022-11-15T09:35:33;4.03;;;1.50;;
25922;SDS011;13725;51.170;4.442;2022-11-15T09:38:17;8.70;;;1.58;;
25922;SDS011;13725;51.170;4.442;2022-11-15T09:50:10;7.63;;;1.70;;
25922;SDS011;13725;51.170;4.442;2022-11-15T09:52:39;4.72;;;1.05;;
25922;SDS011;13725;51.170;4.442;2022-11-15T09:55:11;3.03;;;1.05;;
25922;SDS011;13725;51.170;4.442;2022-11-15T10:05:41;5.78;;;1.05;;
25922;SDS011;13725;51.170;4.442;2022-11-15T10:08:28;4.63;;;1.45;;
25922;SDS011;13725;51.170;4.442;2022-11-15T10:11:15;3.53;;;1.00;;
25922;SDS011;13725;51.170;4.442;2022-11-15T10:13:45;5.47;;;1.38;;
25922;SDS011;13725;51.170;4.442;2022-11-15T10:18:52;5.47;;;1.38;;
25922;SDS011;13725;51.170;4.442;2022-11-15T10:21:29;2.08;;;0.90;;
25922;SDS011;13725;51.170;4.442;2022-11-15T10:24:11;6.10;;;1.50;;
25922;SDS011;13725;51.170;4.442;2022-11-15T10:26:46;5.70;;;1.40;;
25922;SDS011;13725;51.170;4.442;2022-11-15T10:29:17;4.43;;;1.33;;
25922;SDS011;13725;51.170;4.442;2022-11-15T10:31:47;4.53;;;1.10;;
25922;SDS011;13725;51.170;4.442;2022-11-15T10:34:14;3.42;;;1.15;;
25922;SDS011;13725;51.170;4.442;2022-11-15T10:37:13;3.20;;;1.17;;
25922;SDS011;13725;51.170;4.442;2022-11-15T10:39:32;4.30;;;1.27;;
25922;SDS011;13725;51.170;4.442;2022-11-15T10:44:53;8.45;;;2.20;;
25922;SDS011;13725;51.170;4.442;2022-11-15T10:47:23;8.35;;;1.17;;
25922;SDS011;13725;51.170;4.442;2022-11-15T10:49:55;7.88;;;1.25;;
25922;SDS011;13725;51.170;4.442;2022-11-15T10:52:45;4.07;;;1.10;;
25922;SDS011;13725;51.170;4.442;2022-11-15T10:57:37;7.72;;;1.30;;
25922;SDS011;13725;51.170;4.442;2022-11-15T11:05:26;3.80;;;0.90;;
25922;SDS011;13725;51.170;4.442;2022-11-15T11:08:01;8.07;;;1.38;;
25922;SDS011;13725;51.170;4.442;2022-11-15T11:10:37;6.78;;;1.33;;
25922;SDS011;13725;51.170;4.442;2022-11-15T11:13:13;9.10;;;1.98;;
25922;SDS011;13725;51.170;4.442;2022-11-15T11:15:47;7.60;;;1.42;;
25922;SDS011;13725;51.170;4.442;2022-11-15T11:19:20;8.43;;;1.25;;
25922;SDS011;13725;51.170;4.442;2022-11-15T11:29:57;5.75;;;0.90;;
25922;SDS011;13725;51.170;4.442;2022-11-15T11:32:36;5.78;;;1.17;;
25922;SDS011;13725;51.170;4.442;2022-11-15T11:46:54;4.85;;;1.10;;
25922;SDS011;13725;51.170;4.442;2022-11-15T11:49:29;5.68;;;1.23;;
25922;SDS011;13725;51.170;4.442;2022-11-15T11:52:17;3.53;;;1.20;;
25922;SDS011;13725;51.170;4.442;2022-11-15T12:03:09;1.73;;;0.82;;
25922;SDS011;13725;51.170;4.442;2022-11-15T12:05:37;6.28;;;1.08;;
25922;SDS011;13725;51.170;4.442;2022-11-15T12:11:08;6.35;;;1.13;;
25922;SDS011;13725;51.170;4.442;2022-11-15T12:13:41;5.10;;;1.13;;
25922;SDS011;13725;51.170;4.442;2022-11-15T12:18:51;5.75;;;1.17;;
25922;SDS011;13725;51.170;4.442;2022-11-15T12:24:13;7.25;;;1.48;;
25922;SDS011;13725;51.170;4.442;2022-11-15T12:26:42;6.82;;;1.27;;
25922;SDS011;13725;51.170;4.442;2022-11-15T12:29:16;7.75;;;1.50;;
25922;SDS011;13725;51.170;4.442;2022-11-15T12:31:57;6.45;;;1.17;;
25922;SDS011;13725;51.170;4.442;2022-11-15T12:36:59;4.22;;;1.00;;
25922;SDS011;13725;51.170;4.442;2022-11-15T12:42:39;18.50;;;1.73;;
25922;SDS011;13725;51.170;4.442;2022-11-15T12:45:23;13.05;;;1.90;;
25922;SDS011;13725;51.170;4.442;2022-11-15T12:59:00;6.28;;;1.08;;
25922;SDS011;13725;51.170;4.442;2022-11-15T13:04:13;9.77;;;2.67;;
25922;SDS011;13725;51.170;4.442;2022-11-15T13:06:46;5.03;;;1.70;;
25922;SDS011;13725;51.170;4.442;2022-11-15T13:12:02;7.97;;;1.25;;
25922;SDS011;13725;51.170;4.442;2022-11-15T13:19:48;7.10;;;1.45;;
25922;SDS011;13725;51.170;4.442;2022-11-15T13:22:18;4.93;;;1.25;;
25922;SDS011;13725;51.170;4.442;2022-11-15T13:25:03;4.25;;;1.23;;
25922;SDS011;13725;51.170;4.442;2022-11-15T13:27:29;7.63;;;2.35;;
25922;SDS011;13725;51.170;4.442;2022-11-15T13:29:55;10.35;;;1.70;;
25922;SDS011;13725;51.170;4.442;2022-11-15T13:32:20;4.70;;;1.30;;
25922;SDS011;13725;51.170;4.442;2022-11-15T13:34:47;11.38;;;1.73;;
25922;SDS011;13725;51.170;4.442;2022-11-15T13:39:46;12.10;;;2.47;;
25922;SDS011;13725;51.170;4.442;2022-11-15T13:42:16;5.90;;;1.48;;
25922;SDS011;13725;51.170;4.442;2022-11-15T13:45:02;5.88;;;1.17;;
25922;SDS011;13725;51.170;4.442;2022-11-15T13:47:29;6.78;;;1.25;;
25922;SDS011;13725;51.170;4.442;2022-11-15T13:49:57;8.48;;;1.30;;
25922;SDS011;13725;51.170;4.442;2022-11-15T13:52:25;3.40;;;1.10;;
25922;SDS011;13725;51.170;4.442;2022-11-15T13:54:58;3.80;;;1.00;;
25922;SDS011;13725;51.170;4.442;2022-11-15T13:57:42;3.10;;;1.15;;
25922;SDS011;13725;51.170;4.442;2022-11-15T14:00:30;4.30;;;1.10;;
25922;SDS011;13725;51.170;4.442;2022-11-15T14:03:08;6.05;;;1.27;;
25922;SDS011;13725;51.170;4.442;2022-11-15T14:05:43;6.20;;;1.38;;
25922;SDS011;13725;51.170;4.442;2022-11-15T14:08:31;3.65;;;0.80;;
25922;SDS011;13725;51.170;4.442;2022-11-15T14:11:15;2.20;;;0.77;;
25922;SDS011;13725;51.170;4.442;2022-11-15T14:13:58;3.20;;;1.65;;
25922;SDS011;13725;51.170;4.442;2022-11-15T14:19:12;6.90;;;1.55;;
25922;SDS011;13725;51.170;4.442;2022-11-15T14:24:38;6.97;;;1.23;;
25922;SDS011;13725;51.170;4.442;2022-11-15T14:27:18;2.38;;;1.10;;
25922;SDS011;13725;51.170;4.442;2022-11-15T14:29:49;4.93;;;1.10;;
25922;SDS011;13725;51.170;4.442;2022-11-15T14:32:16;5.32;;;1.60;;
25922;SDS011;13725;51.170;4.442;2022-11-15T14:34:57;6.78;;;1.50;;
25922;SDS011;13725;51.170;4.442;2022-11-15T14:37:25;4.38;;;1.45;;
25922;SDS011;13725;51.170;4.442;2022-11-15T14:39:52;4.93;;;1.35;;
25922;SDS011;13725;51.170;4.442;2022-11-15T14:42:19;9.55;;;1.70;;
25922;SDS011;13725;51.170;4.442;2022-11-15T14:44:46;6.35;;;1.25;;
25922;SDS011;13725;51.170;4.442;2022-11-15T14:47:12;3.17;;;1.30;;
25922;SDS011;13725;51.170;4.442;2022-11-15T14:49:38;3.58;;;1.13;;
25922;SDS011;13725;51.170;4.442;2022-11-15T14:52:07;4.00;;;1.25;;
25922;SDS011;13725;51.170;4.442;2022-11-15T14:54:49;6.55;;;1.33;;
25922;SDS011;13725;51.170;4.442;2022-11-15T14:57:15;4.88;;;1.83;;
25922;SDS011;13725;51.170;4.442;2022-11-15T14:59:41;7.32;;;1.85;;
25922;SDS011;13725;51.170;4.442;2022-11-15T15:02:14;6.85;;;3.03;;
25922;SDS011;13725;51.170;4.442;2022-11-15T15:04:49;3.92;;;1.42;;
25922;SDS011;13725;51.170;4.442;2022-11-15T15:07:15;4.47;;;1.40;;
25922;SDS011;13725;51.170;4.442;2022-11-15T15:09:42;2.65;;;1.48;;
25922;SDS011;13725;51.170;4.442;2022-11-15T15:12:16;6.75;;;2.22;;
25922;SDS011;13725;51.170;4.442;2022-11-15T15:14:43;4.25;;;1.40;;
25922;SDS011;13725;51.170;4.442;2022-11-15T15:17:09;8.02;;;2.05;;
25922;SDS011;13725;51.170;4.442;2022-11-15T15:19:35;3.40;;;1.60;;
25922;SDS011;13725;51.170;4.442;2022-11-15T15:22:01;7.60;;;2.17;;
25922;SDS011;13725;51.170;4.442;2022-11-15T15:24:27;5.15;;;1.85;;
25922;SDS011;13725;51.170;4.442;2022-11-15T15:26:52;3.90;;;1.98;;
25922;SDS011;13725;51.170;4.442;2022-11-15T15:29:18;2.55;;;1.73;;
25922;SDS011;13725;51.170;4.442;2022-11-15T15:31:43;4.25;;;1.98;;
25922;SDS011;13725;51.170;4.442;2022-11-15T15:34:09;7.35;;;1.90;;
25922;SDS011;13725;51.170;4.442;2022-11-15T15:36:35;8.63;;;2.35;;
25922;SDS011;13725;51.170;4.442;2022-11-15T15:39:02;4.88;;;2.13;;
25922;SDS011;13725;51.170;4.442;2022-11-15T15:41:27;5.90;;;2.00;;
25922;SDS011;13725;51.170;4.442;2022-11-15T15:43:53;7.22;;;2.60;;
25922;SDS011;13725;51.170;4.442;2022-11-15T15:46:19;9.65;;;2.60;;
25922;SDS011;13725;51.170;4.442;2022-11-15T15:48:45;10.35;;;3.40;;
25922;SDS011;13725;51.170;4.442;2022-11-15T15:51:11;6.20;;;2.55;;
25922;SDS011;13725;51.170;4.442;2022-11-15T15:53:37;13.88;;;3.90;;
25922;SDS011;13725;51.170;4.442;2022-11-15T15:56:04;7.28;;;3.22;;
25922;SDS011;13725;51.170;4.442;2022-11-15T15:58:34;8.90;;;3.50;;
25922;SDS011;13725;51.170;4.442;2022-11-15T16:01:00;6.50;;;3.67;;
25922;SDS011;13725;51.170;4.442;2022-11-15T16:03:25;7.03;;;3.28;;
25922;SDS011;13725;51.170;4.442;2022-11-15T16:05:52;7.57;;;3.33;;
25922;SDS011;13725;51.170;4.442;2022-11-15T16:08:22;6.15;;;3.55;;
25922;SDS011;13725;51.170;4.442;2022-11-15T16:10:49;7.00;;;3.40;;
25922;SDS011;13725;51.170;4.442;2022-11-15T16:13:15;6.15;;;3.72;;
25922;SDS011;13725;51.170;4.442;2022-11-15T16:15:41;6.70;;;3.17;;
25922;SDS011;13725;51.170;4.442;2022-11-15T16:18:16;8.43;;;3.97;;
25922;SDS011;13725;51.170;4.442;2022-11-15T16:20:47;6.55;;;3.17;;
25922;SDS011;13725;51.170;4.442;2022-11-15T16:23:16;9.70;;;3.15;;
25922;SDS011;13725;51.170;4.442;2022-11-15T16:28:49;6.57;;;3.20;;
25922;SDS011;13725;51.170;4.442;2022-11-15T16:31:08;7.95;;;3.47;;
25922;SDS011;13725;51.170;4.442;2022-11-15T16:33:35;6.75;;;3.15;;
25922;SDS011;13725;51.170;4.442;2022-11-15T16:36:02;8.15;;;4.00;;
25922;SDS011;13725;51.170;4.442;2022-11-15T16:38:29;10.23;;;3.80;;
25922;SDS011;13725;51.170;4.442;2022-11-15T16:40:55;8.60;;;3.70;;
25922;SDS011;13725;51.170;4.442;2022-11-15T16:43:21;10.20;;;4.03;;
25922;SDS011;13725;51.170;4.442;2022-11-15T16:45:47;6.30;;;3.55;;
25922;SDS011;13725;51.170;4.442;2022-11-15T16:48:26;7.95;;;3.72;;
25922;SDS011;13725;51.170;4.442;2022-11-15T16:50:56;6.38;;;3.30;;
25922;SDS011;13725;51.170;4.442;2022-11-15T16:53:23;7.57;;;3.97;;
25922;SDS011;13725;51.170;4.442;2022-11-15T16:55:49;8.45;;;3.38;;
25922;SDS011;13725;51.170;4.442;2022-11-15T16:58:15;6.57;;;3.72;;
25922;SDS011;13725;51.170;4.442;2022-11-15T17:00:41;5.78;;;3.78;;
25922;SDS011;13725;51.170;4.442;2022-11-15T17:03:06;7.97;;;3.50;;
25922;SDS011;13725;51.170;4.442;2022-11-15T17:05:32;8.25;;;3.58;;
25922;SDS011;13725;51.170;4.442;2022-11-15T17:07:58;6.50;;;3.55;;
25922;SDS011;13725;51.170;4.442;2022-11-15T17:10:24;9.18;;;3.90;;
25922;SDS011;13725;51.170;4.442;2022-11-15T17:12:51;10.57;;;4.78;;
25922;SDS011;13725;51.170;4.442;2022-11-15T17:15:17;6.75;;;3.95;;
25922;SDS011;13725;51.170;4.442;2022-11-15T17:17:43;7.13;;;4.10;;
25922;SDS011;13725;51.170;4.442;2022-11-15T17:20:15;8.27;;;4.13;;
25922;SDS011;13725;51.170;4.442;2022-11-15T17:22:42;7.38;;;3.85;;
25922;SDS011;13725;51.170;4.442;2022-11-15T17:25:08;6.07;;;4.00;;
25922;SDS011;13725;51.170;4.442;2022-11-15T17:27:34;5.40;;;3.80;;
25922;SDS011;13725;51.170;4.442;2022-11-15T17:30:00;6.00;;;4.03;;
25922;SDS011;13725;51.170;4.442;2022-11-15T17:32:26;4.93;;;3.25;;
25922;SDS011;13725;51.170;4.442;2022-11-15T17:34:52;4.55;;;3.60;;
25922;SDS011;13725;51.170;4.442;2022-11-15T17:37:18;5.97;;;3.90;;
25922;SDS011;13725;51.170;4.442;2022-11-15T17:39:44;6.32;;;3.70;;
25922;SDS011;13725;51.170;4.442;2022-11-15T17:42:09;9.90;;;4.32;;
25922;SDS011;13725;51.170;4.442;2022-11-15T17:44:35;5.72;;;3.80;;
25922;SDS011;13725;51.170;4.442;2022-11-15T17:47:01;5.35;;;3.30;;
25922;SDS011;13725;51.170;4.442;2022-11-15T17:49:27;5.43;;;3.72;;
25922;SDS011;13725;51.170;4.442;2022-11-15T17:51:52;7.07;;;4.25;;
25922;SDS011;13725;51.170;4.442;2022-11-15T17:54:18;6.28;;;3.92;;